createdAt,value
2023-04-24T00:00:24.998Z,74.88
2023-04-24T00:02:26.714Z,74.21
2023-04-24T00:04:28.729Z,74.97
2023-04-24T00:06:30.743Z,75.72
2023-04-24T00:08:32.387Z,76.08
2023-04-24T00:10:34.055Z,75.79
2023-04-24T00:12:35.797Z,76.42
2023-04-24T00:14:37.621Z,77.09
2023-04-24T00:16:40.662Z,77.85
2023-04-24T00:18:42.282Z,77.32
2023-04-24T00:20:43.925Z,77.30
2023-04-24T00:22:45.482Z,77.94
2023-04-24T00:24:47.223Z,78.05
2023-04-24T00:26:48.902Z,77.52
2023-04-24T00:28:50.810Z,77.73
2023-04-24T00:30:52.325Z,77.45
2023-04-24T00:32:55.309Z,77.37
2023-04-24T00:34:56.849Z,77.79
2023-04-24T00:36:58.442Z,77.69
2023-04-24T00:38:59.977Z,77.53
2023-04-24T00:41:01.660Z,77.74
2023-04-24T00:43:03.497Z,77.79
2023-04-24T00:45:06.499Z,78.30
2023-04-24T00:47:08.417Z,77.71
2023-04-24T00:49:12.766Z,77.95
2023-04-24T00:51:14.274Z,78.04
2023-04-24T00:53:16.188Z,77.55
2023-04-24T00:55:18.252Z,77.36
2023-04-24T00:57:20.244Z,77.50
2023-04-24T00:59:21.941Z,77.12
2023-04-24T01:01:23.716Z,77.38
2023-04-24T01:03:27.667Z,77.16
2023-04-24T01:05:30.929Z,76.97
2023-04-24T01:07:32.815Z,76.23
2023-04-24T01:09:34.413Z,75.75
2023-04-24T01:11:35.988Z,75.68
2023-04-24T01:13:37.608Z,75.63
2023-04-24T01:15:39.137Z,75.60
2023-04-24T01:17:40.784Z,75.82
2023-04-24T01:19:42.640Z,75.23
2023-04-24T01:21:48.527Z,74.51
2023-04-24T01:23:52.159Z,75.00
2023-04-24T01:25:53.845Z,74.82
2023-04-24T01:27:55.467Z,75.02
2023-04-24T01:29:57.379Z,75.17
2023-04-24T01:31:59.352Z,74.70
2023-04-24T01:34:01.626Z,74.53
2023-04-24T01:36:03.866Z,74.88
2023-04-24T01:38:05.727Z,74.78
2023-04-24T01:40:09.946Z,74.58
2023-04-24T01:42:13.019Z,74.83
2023-04-24T01:44:15.614Z,74.55
2023-04-24T01:46:17.553Z,74.89
2023-04-24T01:48:19.346Z,74.24
2023-04-24T01:50:21.099Z,75.06
2023-04-24T01:52:23.449Z,74.65
2023-04-24T01:54:25.034Z,75.19
2023-04-24T01:56:30.362Z,75.12
2023-04-24T01:58:32.809Z,75.48
2023-04-24T02:00:34.436Z,75.36
2023-04-24T02:02:36.289Z,75.97
2023-04-24T02:04:38.307Z,75.91
2023-04-24T02:06:39.896Z,76.43
2023-04-24T02:08:41.822Z,76.07
2023-04-24T02:10:43.356Z,76.48
2023-04-24T02:12:46.333Z,76.36
2023-04-24T02:14:47.936Z,76.00
2023-04-24T02:16:49.545Z,76.27
2023-04-24T02:18:51.231Z,76.41
2023-04-24T02:20:52.789Z,76.37
2023-04-24T02:22:54.458Z,76.30
2023-04-24T02:24:56.611Z,76.59
2023-04-24T02:26:58.249Z,76.62
2023-04-24T02:29:01.158Z,76.81
2023-04-24T02:31:02.702Z,76.17
2023-04-24T02:33:04.347Z,76.80
2023-04-24T02:35:07.143Z,76.62
2023-04-24T02:37:08.754Z,76.90
2023-04-24T02:39:10.304Z,76.33
2023-04-24T02:41:12.295Z,76.68
2023-04-24T02:43:14.032Z,76.56
2023-04-24T02:45:17.164Z,76.72
2023-04-24T02:47:18.756Z,76.49
2023-04-24T02:49:20.461Z,76.05
2023-04-24T02:51:22.032Z,75.93
2023-04-24T02:53:23.613Z,75.69
2023-04-24T02:55:25.219Z,75.45
2023-04-24T02:57:27.012Z,76.17
2023-04-24T02:59:28.667Z,75.65
2023-04-24T03:01:31.633Z,75.87
2023-04-24T03:03:33.382Z,75.42
2023-04-24T03:05:35.162Z,75.81
2023-04-24T03:07:37.220Z,75.52
2023-04-24T03:09:38.703Z,75.79
2023-04-24T03:11:40.632Z,75.97
2023-04-24T03:13:42.157Z,75.42
2023-04-24T03:15:44.372Z,75.40
2023-04-24T03:17:47.670Z,75.56
2023-04-24T03:19:52.245Z,75.26
2023-04-24T03:21:53.887Z,75.50
2023-04-24T03:23:55.572Z,75.73
2023-04-24T03:25:57.237Z,75.29
2023-04-24T03:27:58.864Z,74.99
2023-04-24T03:30:00.445Z,75.09
2023-04-24T03:32:02.189Z,75.17
2023-04-24T03:34:05.231Z,75.03
2023-04-24T03:36:06.995Z,74.63
2023-04-24T03:38:08.573Z,74.87
2023-04-24T03:40:10.739Z,74.98
2023-04-24T03:42:12.334Z,75.41
2023-04-24T03:44:14.218Z,75.37
2023-04-24T03:46:15.977Z,75.25
2023-04-24T03:48:17.820Z,75.50
2023-04-24T03:50:20.806Z,75.86
2023-04-24T03:52:22.387Z,74.99
2023-04-24T03:54:24.018Z,75.22
2023-04-24T03:56:28.303Z,75.12
2023-04-24T03:58:29.923Z,75.91
2023-04-24T04:00:31.508Z,75.62
2023-04-24T04:02:33.295Z,76.12
2023-04-24T04:04:35.052Z,75.56
2023-04-24T04:06:38.865Z,75.70
2023-04-24T04:08:40.396Z,75.66
2023-04-24T04:10:41.976Z,76.00
2023-04-24T04:12:43.749Z,76.24
2023-04-24T04:14:45.238Z,76.62
2023-04-24T04:16:46.885Z,76.22
2023-04-24T04:18:48.578Z,76.09
2023-04-24T04:20:50.515Z,75.90
2023-04-24T04:22:53.467Z,76.18
2023-04-24T04:24:55.098Z,75.96
2023-04-24T04:26:56.607Z,76.62
2023-04-24T04:28:58.116Z,76.78
2023-04-24T04:30:59.781Z,76.58
2023-04-24T04:33:01.450Z,76.55
2023-04-24T04:35:03.287Z,76.68
2023-04-24T04:37:05.020Z,76.62
2023-04-24T04:39:08.458Z,76.75
2023-04-24T04:41:09.991Z,76.20
2023-04-24T04:43:11.620Z,76.78
2023-04-24T04:45:13.261Z,76.65
2023-04-24T04:47:14.920Z,76.89
2023-04-24T04:49:16.591Z,77.01
2023-04-24T04:51:18.213Z,77.50
2023-04-24T04:53:19.761Z,77.91
2023-04-24T04:55:22.699Z,77.86
2023-04-24T04:57:24.212Z,78.16
2023-04-24T04:59:25.859Z,78.32
2023-04-24T05:01:27.582Z,77.44
2023-04-24T05:03:29.280Z,77.69
2023-04-24T05:05:31.127Z,77.81
2023-04-24T05:07:32.728Z,76.95
2023-04-24T05:09:34.517Z,77.67
2023-04-24T05:11:37.633Z,77.38
2023-04-24T05:13:40.548Z,77.37
2023-04-24T05:15:42.858Z,76.94
2023-04-24T05:17:44.429Z,76.98
2023-04-24T05:19:46.371Z,76.46
2023-04-24T05:21:48.121Z,76.84
2023-04-24T05:23:49.766Z,76.28
2023-04-24T05:25:51.636Z,77.59
2023-04-24T05:27:54.533Z,77.08
2023-04-24T05:29:56.144Z,76.90
2023-04-24T05:31:57.827Z,76.58
2023-04-24T05:33:59.381Z,76.70
2023-04-24T05:36:00.944Z,76.65
2023-04-24T05:38:02.558Z,76.65
2023-04-24T05:40:04.843Z,77.03
2023-04-24T05:42:06.389Z,76.59
2023-04-24T05:44:09.371Z,77.44
2023-04-24T05:46:12.464Z,77.07
2023-04-24T05:48:14.088Z,77.01
2023-04-24T05:50:15.698Z,76.95
2023-04-24T05:52:17.307Z,77.31
2023-04-24T05:54:18.893Z,77.07
2023-04-24T05:56:20.635Z,77.36
2023-04-24T05:58:22.211Z,77.64
2023-04-24T06:00:26.064Z,77.29
2023-04-24T06:02:27.907Z,77.76
2023-04-24T06:04:29.721Z,77.29
2023-04-24T06:06:31.708Z,77.41
2023-04-24T06:08:33.679Z,77.31
2023-04-24T06:10:35.279Z,77.58
2023-04-24T06:12:36.844Z,77.40
2023-04-24T06:14:38.408Z,77.00
2023-04-24T06:16:43.629Z,77.64
2023-04-24T06:18:45.417Z,77.30
2023-04-24T06:20:47.458Z,77.56
2023-04-24T06:22:49.078Z,76.49
2023-04-24T06:24:50.680Z,76.53
2023-04-24T06:26:52.259Z,77.11
2023-04-24T06:28:54.188Z,76.98
2023-04-24T06:30:55.721Z,77.07
2023-04-24T06:33:03.134Z,77.31
2023-04-24T06:35:11.103Z,77.21
2023-04-24T06:37:12.707Z,77.69
2023-04-24T06:39:14.316Z,76.79
2023-04-24T06:41:15.850Z,77.04
2023-04-24T06:43:17.368Z,77.33
2023-04-24T06:45:19.276Z,76.98
2023-04-24T06:47:20.965Z,77.25
2023-04-24T06:49:23.848Z,76.96
2023-04-24T06:51:26.771Z,76.91
2023-04-24T06:53:28.322Z,77.00
2023-04-24T06:55:30.382Z,77.32
2023-04-24T06:57:32.361Z,76.95
2023-04-24T06:59:33.929Z,76.95
2023-04-24T07:01:35.455Z,76.89
2023-04-24T07:03:37.409Z,77.21
2023-04-24T07:05:40.798Z,76.94
2023-04-24T07:07:42.391Z,77.08
2023-04-24T07:09:44.331Z,77.53
2023-04-24T07:11:46.230Z,77.92
2023-04-24T07:13:47.763Z,77.74
2023-04-24T07:15:49.995Z,77.36
2023-04-24T07:17:51.716Z,77.16
2023-04-24T07:19:53.268Z,77.46
2023-04-24T07:21:56.252Z,76.87
2023-04-24T07:23:57.830Z,76.41
2023-04-24T07:25:59.522Z,76.13
2023-04-24T07:28:01.175Z,75.70
2023-04-24T07:30:02.861Z,75.42
2023-04-24T07:32:04.962Z,75.60
2023-04-24T07:34:06.648Z,76.32
2023-04-24T07:36:08.427Z,74.75
2023-04-24T07:38:11.310Z,74.10
2023-04-24T07:40:13.164Z,74.51
2023-04-24T07:42:14.820Z,75.99
2023-04-24T07:44:16.397Z,75.74
2023-04-24T07:46:18.133Z,75.16
2023-04-24T07:48:19.772Z,72.74
2023-04-24T07:50:21.754Z,74.32
2023-04-24T07:52:23.399Z,72.43
2023-04-24T07:54:26.690Z,70.90
2023-04-24T07:56:28.325Z,70.31
2023-04-24T07:58:30.065Z,69.05
2023-04-24T08:00:31.838Z,68.70
2023-04-24T08:02:33.689Z,67.89
2023-04-24T08:04:35.589Z,68.50
2023-04-24T08:06:37.185Z,67.11
2023-04-24T08:08:38.754Z,67.91
2023-04-24T08:10:41.758Z,66.31
2023-04-24T08:12:43.286Z,65.79
2023-04-24T08:14:45.065Z,66.07
2023-04-24T08:16:46.627Z,65.69
2023-04-24T08:18:48.285Z,65.89
2023-04-24T08:20:49.901Z,65.14
2023-04-24T08:22:51.424Z,64.67
2023-04-24T08:24:52.965Z,63.12
2023-04-24T08:26:56.188Z,63.40
2023-04-24T08:28:57.920Z,62.35
2023-04-24T08:30:59.849Z,62.14
2023-04-24T08:33:01.713Z,60.61
2023-04-24T08:35:03.608Z,60.07
2023-04-24T08:37:05.257Z,60.65
2023-04-24T08:39:06.911Z,61.14
2023-04-24T08:41:09.729Z,59.92
2023-04-24T08:43:13.471Z,59.09
2023-04-24T08:45:15.497Z,59.53
2023-04-24T08:47:17.475Z,58.68
2023-04-24T08:49:19.897Z,59.26
2023-04-24T08:51:21.974Z,58.28
2023-04-24T08:53:25.810Z,58.94
2023-04-24T08:55:27.525Z,58.60
2023-04-24T08:57:29.696Z,58.36
2023-04-24T08:59:33.443Z,58.33
2023-04-24T09:01:38.120Z,57.98
2023-04-24T09:03:41.088Z,57.49
2023-04-24T09:05:44.691Z,56.70
2023-04-24T09:07:50.381Z,57.00
2023-04-24T09:09:53.270Z,57.05
2023-04-24T09:11:54.824Z,56.86
2023-04-24T09:13:57.578Z,56.10
2023-04-24T09:16:00.766Z,56.72
2023-04-24T09:18:02.473Z,56.33
2023-04-24T09:20:04.932Z,54.49
2023-04-24T09:22:07.090Z,54.14
2023-04-24T09:24:16.149Z,55.03
2023-04-24T09:26:17.895Z,54.05
2023-04-24T09:28:19.666Z,55.08
2023-04-24T09:30:22.782Z,55.59
2023-04-24T09:32:26.523Z,55.28
2023-04-24T09:34:28.587Z,53.35
2023-04-24T09:36:31.722Z,53.21
2023-04-24T09:38:35.074Z,52.37
2023-04-24T09:40:36.781Z,53.59
2023-04-24T09:42:38.672Z,51.41
2023-04-24T09:44:40.272Z,52.00
2023-04-24T09:46:43.107Z,51.04
2023-04-24T09:48:46.550Z,51.31
2023-04-24T09:50:49.117Z,51.46
2023-04-24T09:52:58.117Z,52.57
2023-04-24T09:54:59.713Z,49.87
2023-04-24T09:57:01.292Z,49.54
2023-04-24T09:59:06.026Z,49.91
2023-04-24T10:01:07.700Z,47.79
2023-04-24T10:03:09.527Z,48.67
2023-04-24T10:05:13.171Z,47.69
2023-04-24T10:07:21.925Z,47.38
2023-04-24T10:14:19.527Z,47.34
2023-04-24T10:19:39.963Z,48.56
2023-04-24T10:21:42.159Z,47.26
2023-04-24T10:23:44.118Z,45.87
2023-04-24T10:25:46.274Z,46.99
2023-04-24T10:27:51.981Z,46.61
2023-04-24T10:29:54.528Z,47.52
2023-04-24T10:31:56.678Z,47.91
2023-04-24T10:34:00.919Z,47.41
2023-04-24T10:36:03.154Z,46.21
2023-04-24T10:38:10.343Z,47.40
2023-04-24T10:40:13.361Z,46.65
2023-04-24T10:42:15.718Z,45.76
2023-04-24T10:44:17.445Z,45.87
2023-04-24T10:46:21.380Z,45.08
2023-04-24T10:48:27.835Z,45.56
2023-04-24T10:50:42.531Z,43.89
2023-04-24T10:52:47.697Z,45.61
2023-04-24T10:54:50.605Z,43.82
2023-04-24T10:56:52.873Z,44.20
2023-04-24T10:58:54.467Z,44.28
2023-04-24T11:00:57.666Z,43.36
2023-04-24T11:02:59.447Z,43.40
2023-04-24T11:05:04.449Z,43.52
2023-04-24T11:07:06.534Z,43.30
2023-04-24T11:09:09.743Z,44.07
2023-04-24T11:11:14.205Z,43.93
2023-04-24T11:13:16.791Z,43.25
2023-04-24T11:15:18.648Z,43.72
2023-04-24T11:17:30.261Z,45.63
2023-04-24T11:19:31.872Z,44.18
2023-04-24T11:21:40.630Z,46.07
2023-04-24T11:23:42.251Z,43.23
2023-04-24T11:25:43.917Z,42.47
2023-04-24T11:27:46.819Z,41.78
2023-04-24T11:29:49.648Z,40.67
2023-04-24T11:31:51.386Z,40.90
2023-04-24T11:33:53.880Z,40.88
2023-04-24T11:35:55.656Z,41.18
2023-04-24T11:40:02.824Z,40.88
2023-04-24T11:42:05.139Z,40.54
2023-04-24T11:44:10.650Z,42.60
2023-04-24T11:46:12.278Z,39.89
2023-04-24T11:48:22.582Z,40.43
2023-04-24T11:50:26.057Z,40.43
2023-04-24T11:52:28.101Z,39.97
2023-04-24T11:54:29.980Z,40.59
2023-04-24T11:56:31.568Z,40.07
2023-04-24T11:58:35.940Z,40.85
2023-04-24T12:00:38.950Z,39.47
2023-04-24T12:02:40.833Z,40.36
2023-04-24T12:04:43.049Z,39.55
2023-04-24T12:07:00.373Z,43.47
2023-04-24T12:09:11.499Z,41.56
2023-04-24T12:11:19.145Z,40.72
2023-04-24T12:13:20.888Z,40.98
2023-04-24T12:15:24.066Z,41.26
2023-04-24T12:17:29.575Z,39.61
2023-04-24T12:19:31.361Z,38.81
2023-04-24T12:21:33.094Z,39.59
2023-04-24T12:23:35.680Z,38.11
2023-04-24T12:25:37.414Z,38.22
2023-04-24T12:27:39.131Z,38.95
2023-04-24T12:29:52.563Z,41.06
2023-04-24T12:31:55.114Z,37.05
2023-04-24T12:33:58.105Z,37.89
2023-04-24T12:35:59.821Z,37.94
2023-04-24T12:38:06.924Z,39.13
2023-04-24T12:40:11.106Z,36.78
2023-04-24T12:42:12.756Z,36.85
2023-04-24T12:44:14.387Z,37.97
2023-04-24T12:46:17.632Z,38.46
2023-04-24T12:48:19.917Z,37.82
2023-04-24T12:50:22.980Z,37.95
2023-04-24T12:52:25.210Z,37.37
2023-04-24T12:54:26.990Z,36.50
2023-04-24T12:56:28.914Z,36.73
2023-04-24T12:58:30.465Z,38.45
2023-04-24T13:00:32.625Z,38.50
2023-04-24T13:02:35.343Z,37.81
2023-04-24T13:04:37.073Z,37.86
2023-04-24T13:06:40.037Z,38.18
2023-04-24T13:08:41.876Z,38.11
2023-04-24T13:10:43.460Z,37.97
2023-04-24T13:12:45.088Z,38.56
2023-04-24T13:14:47.139Z,37.55
2023-04-24T13:16:49.201Z,38.60
2023-04-24T13:18:50.781Z,37.98
2023-04-24T13:20:52.583Z,38.48
2023-04-24T13:22:55.540Z,37.42
2023-04-24T13:24:57.381Z,37.62
2023-04-24T13:26:59.346Z,38.12
2023-04-24T13:29:00.996Z,38.06
2023-04-24T13:31:02.592Z,38.98
2023-04-24T13:33:04.493Z,39.77
2023-04-24T13:35:06.747Z,40.21
2023-04-24T13:37:08.373Z,41.05
2023-04-24T13:39:11.344Z,41.41
2023-04-24T13:41:12.966Z,42.09
2023-04-24T13:43:14.610Z,44.45
2023-04-24T13:45:24.600Z,43.89
2023-04-24T13:47:27.271Z,46.01
2023-04-24T13:49:29.244Z,46.52
2023-04-24T13:51:31.000Z,47.54
2023-04-24T13:53:32.655Z,45.95
2023-04-24T13:55:35.569Z,46.20
2023-04-24T13:57:37.154Z,44.90
2023-04-24T13:59:39.263Z,45.26
2023-04-24T14:01:40.850Z,44.72
2023-04-24T14:03:44.429Z,45.62
2023-04-24T14:05:51.277Z,43.80
2023-04-24T14:07:52.914Z,44.07
2023-04-24T14:09:54.461Z,44.80
2023-04-24T14:11:57.488Z,44.54
2023-04-24T14:13:59.060Z,44.85
2023-04-24T14:16:00.670Z,44.33
2023-04-24T14:18:04.895Z,44.64
2023-04-24T14:20:08.706Z,45.17
2023-04-24T14:22:10.899Z,45.70
2023-04-24T14:24:12.667Z,46.09
2023-04-24T14:26:14.249Z,46.66
2023-04-24T14:28:17.219Z,46.50
2023-04-24T14:30:18.870Z,46.42
2023-04-24T14:32:20.468Z,45.96
2023-04-24T14:34:22.085Z,45.75
2023-04-24T14:36:25.104Z,46.20
2023-04-24T14:38:26.801Z,46.61
2023-04-24T14:40:56.293Z,47.21
2023-04-24T14:42:50.098Z,47.04
2023-04-24T14:44:53.176Z,47.18
2023-04-24T14:46:54.889Z,47.97
2023-04-24T14:48:56.980Z,46.62
2023-04-24T14:50:59.158Z,46.66
2023-04-24T14:53:03.886Z,46.79
2023-04-24T14:55:06.384Z,46.45
2023-04-24T14:57:11.187Z,47.30
2023-04-24T14:59:16.306Z,47.61
2023-04-24T15:01:22.775Z,46.87
2023-04-24T15:03:27.555Z,47.29
2023-04-24T15:05:29.883Z,46.53
2023-04-24T15:07:31.701Z,46.02
2023-04-24T15:09:33.392Z,47.53
2023-04-24T15:11:35.237Z,47.02
2023-04-24T15:13:36.902Z,47.22
2023-04-24T15:15:38.564Z,46.44
2023-04-24T15:17:41.560Z,47.47
2023-04-24T15:19:43.185Z,47.01
2023-04-24T15:21:44.829Z,47.39
2023-04-24T15:23:46.818Z,47.51
2023-04-24T15:25:48.897Z,47.72
2023-04-24T15:27:50.517Z,47.87
2023-04-24T15:29:52.215Z,47.28
2023-04-24T15:31:53.827Z,48.63
2023-04-24T15:33:56.840Z,48.38
2023-04-24T15:35:58.542Z,48.53
2023-04-24T15:38:00.126Z,48.41
2023-04-24T15:40:01.975Z,48.42
2023-04-24T15:42:03.866Z,48.60
2023-04-24T15:44:05.458Z,48.43
2023-04-24T15:46:07.507Z,47.95
2023-04-24T15:48:09.259Z,48.32
2023-04-24T15:50:14.443Z,48.58
2023-04-24T15:52:16.337Z,47.49
2023-04-24T15:54:18.079Z,47.57
2023-04-24T15:56:19.850Z,46.56
2023-04-24T15:58:21.630Z,46.98
2023-04-24T16:00:23.498Z,47.16
2023-04-24T16:02:25.343Z,46.84
2023-04-24T16:04:27.400Z,45.97
2023-04-24T16:06:30.390Z,45.97
2023-04-24T16:08:32.159Z,45.86
2023-04-24T16:10:33.839Z,45.14
2023-04-24T16:12:35.612Z,46.02
2023-04-24T16:14:37.261Z,46.83
2023-04-24T16:16:38.774Z,45.95
2023-04-24T16:18:40.319Z,45.96
2023-04-24T16:20:41.906Z,45.51
2023-04-24T16:22:44.783Z,46.02
2023-04-24T16:24:47.053Z,45.54
2023-04-24T16:26:52.579Z,45.55
2023-04-24T16:28:54.258Z,45.07
2023-04-24T16:30:56.469Z,45.42
2023-04-24T16:32:58.093Z,45.91
2023-04-24T16:34:59.854Z,45.68
2023-04-24T16:37:01.448Z,46.58
2023-04-24T16:39:04.885Z,45.15
2023-04-24T16:41:06.419Z,45.63
2023-04-24T16:43:08.451Z,44.68
2023-04-24T16:45:10.718Z,45.51
2023-04-24T16:47:12.528Z,45.78
2023-04-24T16:49:14.670Z,45.67
2023-04-24T16:51:16.508Z,45.88
2023-04-24T16:53:18.093Z,46.23
2023-04-24T16:55:21.022Z,45.51
2023-04-24T16:57:22.781Z,45.44
2023-04-24T16:59:24.476Z,46.10
2023-04-24T17:01:26.557Z,44.98
2023-04-24T17:03:28.277Z,45.78
2023-04-24T17:05:29.991Z,45.38
2023-04-24T17:07:31.768Z,45.64
2023-04-24T17:09:33.421Z,45.90
2023-04-24T17:11:36.283Z,46.22
2023-04-24T17:13:38.052Z,46.57
2023-04-24T17:15:39.902Z,46.75
2023-04-24T17:17:41.706Z,46.43
2023-04-24T17:19:43.398Z,47.22
2023-04-24T17:21:44.929Z,47.03
2023-04-24T17:23:46.541Z,47.65
2023-04-24T17:25:48.878Z,47.46
2023-04-24T17:27:51.779Z,47.69
2023-04-24T17:29:53.358Z,47.76
2023-04-24T17:31:54.975Z,48.27
2023-04-24T17:33:56.603Z,48.00
2023-04-24T17:35:58.839Z,48.47
2023-04-24T17:38:00.591Z,48.79
2023-04-24T17:40:02.500Z,48.77
2023-04-24T17:42:05.576Z,48.92
2023-04-24T17:44:08.704Z,48.79
2023-04-24T17:46:10.781Z,49.04
2023-04-24T17:48:12.866Z,48.75
2023-04-24T17:50:14.625Z,48.88
2023-04-24T17:52:16.492Z,48.71
2023-04-24T17:54:18.521Z,48.99
2023-04-24T17:56:20.533Z,49.11
2023-04-24T17:58:22.171Z,49.21
2023-04-24T18:00:25.144Z,49.32
2023-04-24T18:02:26.904Z,49.12
2023-04-24T18:04:28.606Z,49.41
2023-04-24T18:06:30.339Z,49.40
2023-04-24T18:08:32.378Z,50.01
2023-04-24T18:10:34.839Z,50.51
2023-04-24T18:12:36.677Z,50.29
2023-04-24T18:14:38.565Z,50.40
2023-04-24T18:16:41.611Z,49.75
2023-04-24T18:18:43.471Z,49.22
2023-04-24T18:20:46.093Z,48.74
2023-04-24T18:22:48.217Z,49.23
2023-04-24T18:24:49.789Z,48.94
2023-04-24T18:26:51.342Z,48.64
2023-04-24T18:28:53.090Z,48.27
2023-04-24T18:30:54.741Z,48.65
2023-04-24T18:32:58.416Z,48.56
2023-04-24T18:35:00.190Z,48.80
2023-04-24T18:37:01.723Z,48.46
2023-04-24T18:39:03.313Z,48.71
2023-04-24T18:41:05.078Z,48.15
2023-04-24T18:43:07.074Z,47.28
2023-04-24T18:45:10.926Z,48.15
2023-04-24T18:47:13.961Z,47.04
2023-04-24T18:49:17.262Z,46.96
2023-04-24T18:51:18.907Z,47.28
2023-04-24T18:53:20.562Z,47.46
2023-04-24T18:55:22.456Z,48.05
2023-04-24T18:57:24.165Z,47.11
2023-04-24T18:59:25.909Z,47.54
2023-04-24T19:01:27.678Z,47.27
2023-04-24T19:03:29.399Z,47.00
2023-04-24T19:05:32.869Z,47.00
2023-04-24T19:07:34.392Z,46.97
2023-04-24T19:09:35.954Z,47.54
2023-04-24T19:11:38.078Z,47.85
2023-04-24T19:13:39.565Z,47.82
2023-04-24T19:15:41.118Z,48.01
2023-04-24T19:17:42.777Z,48.46
2023-04-24T19:19:44.501Z,48.24
2023-04-24T19:21:47.493Z,48.61
2023-04-24T19:23:49.311Z,48.75
2023-04-24T19:25:51.001Z,49.06
2023-04-24T19:27:52.626Z,49.13
2023-04-24T19:29:54.304Z,49.32
2023-04-24T19:31:55.884Z,49.74
2023-04-24T19:33:57.398Z,50.25
2023-04-24T19:36:00.122Z,50.11
2023-04-24T19:38:03.128Z,50.02
2023-04-24T19:40:06.080Z,50.54
2023-04-24T19:42:07.837Z,50.59
2023-04-24T19:44:09.519Z,50.67
2023-04-24T19:46:11.719Z,50.84
2023-04-24T19:48:13.606Z,51.22
2023-04-24T19:50:15.392Z,51.17
2023-04-24T19:52:17.021Z,50.95
2023-04-24T19:54:19.946Z,51.43
2023-04-24T19:56:21.501Z,50.94
2023-04-24T19:58:23.330Z,51.25
2023-04-24T20:00:24.931Z,51.41
2023-04-24T20:02:26.874Z,51.59
2023-04-24T20:04:28.776Z,51.98
2023-04-24T20:06:30.574Z,52.03
2023-04-24T20:08:32.230Z,52.42
2023-04-24T20:10:36.112Z,52.36
2023-04-24T20:12:38.163Z,53.15
2023-04-24T20:14:39.856Z,53.47
2023-04-24T20:16:41.534Z,53.77
2023-04-24T20:18:43.122Z,53.85
2023-04-24T20:20:44.729Z,54.53
2023-04-24T20:22:46.311Z,55.32
2023-04-24T20:24:48.093Z,55.55
2023-04-24T20:26:50.943Z,56.08
2023-04-24T20:28:52.643Z,56.73
2023-04-24T20:30:54.779Z,57.21
2023-04-24T20:32:56.536Z,57.25
2023-04-24T20:34:58.489Z,58.05
2023-04-24T20:37:00.024Z,57.65
2023-04-24T20:39:01.580Z,57.95
2023-04-24T20:41:03.427Z,58.18
2023-04-24T20:43:06.780Z,58.33
2023-04-24T20:45:09.351Z,58.57
2023-04-24T20:47:11.630Z,58.75
2023-04-24T20:49:13.211Z,59.36
2023-04-24T20:51:15.106Z,59.09
2023-04-24T20:53:16.749Z,59.08
2023-04-24T20:55:18.366Z,59.79
2023-04-24T20:57:20.026Z,60.13
2023-04-24T20:59:23.023Z,60.36
2023-04-24T21:01:24.773Z,60.05
2023-04-24T21:03:26.514Z,59.88
2023-04-24T21:05:28.075Z,60.44
2023-04-24T21:07:29.646Z,59.45
2023-04-24T21:09:31.371Z,60.43
2023-04-24T21:11:32.884Z,60.22
2023-04-24T21:13:34.397Z,59.73
2023-04-24T21:15:37.546Z,59.94
2023-04-24T21:17:39.171Z,59.74
2023-04-24T21:19:40.884Z,60.06
2023-04-24T21:21:42.418Z,59.97
2023-04-24T21:23:44.365Z,59.49
2023-04-24T21:25:46.043Z,58.55
2023-04-24T21:27:47.771Z,58.40
2023-04-24T21:29:49.685Z,58.30
2023-04-24T21:31:52.826Z,58.75
2023-04-24T21:33:54.411Z,58.67
2023-04-24T21:35:56.002Z,58.99
2023-04-24T21:37:57.565Z,58.98
2023-04-24T21:39:59.202Z,58.91
2023-04-24T21:42:00.756Z,59.08
2023-04-24T21:44:02.395Z,59.42
2023-04-24T21:46:04.285Z,59.39
2023-04-24T21:48:07.589Z,58.92
2023-04-24T21:50:10.419Z,59.20
2023-04-24T21:52:11.939Z,59.09
2023-04-24T21:54:13.617Z,58.71
2023-04-24T21:56:15.403Z,58.67
2023-04-24T21:58:17.777Z,57.67
2023-04-24T22:00:19.464Z,58.16
2023-04-24T22:02:21.186Z,57.60
2023-04-24T22:04:24.692Z,57.45
2023-04-24T22:06:26.448Z,57.68
2023-04-24T22:08:28.049Z,57.67
2023-04-24T22:10:29.756Z,57.78
2023-04-24T22:12:31.356Z,57.61
2023-04-24T22:14:33.023Z,58.17
2023-04-24T22:16:34.674Z,58.13
2023-04-24T22:18:46.666Z,58.42
2023-04-24T22:20:50.584Z,58.72
2023-04-24T22:22:52.173Z,58.83
2023-04-24T22:24:53.717Z,58.92
2023-04-24T22:26:55.507Z,58.64
2023-04-24T22:28:57.032Z,58.89
2023-04-24T22:30:58.659Z,59.15
2023-04-24T22:33:00.413Z,59.01
2023-04-24T22:35:02.153Z,59.47
2023-04-24T22:37:05.255Z,59.91
2023-04-24T22:39:06.961Z,59.30
2023-04-24T22:41:08.535Z,59.98
2023-04-24T22:43:10.164Z,60.05
2023-04-24T22:45:11.906Z,60.00
2023-04-24T22:47:13.488Z,60.08
2023-04-24T22:49:15.129Z,60.18
2023-04-24T22:51:16.793Z,60.05
2023-04-24T22:53:20.161Z,59.88
2023-04-24T22:55:21.962Z,60.55
2023-04-24T22:57:23.605Z,60.73
2023-04-24T22:59:25.145Z,60.30
2023-04-24T23:01:26.868Z,60.39
2023-04-24T23:03:28.982Z,60.80
2023-04-24T23:05:30.844Z,60.55
2023-04-24T23:07:32.446Z,61.10
2023-04-24T23:09:35.321Z,61.33
2023-04-24T23:11:36.852Z,60.95
2023-04-24T23:13:38.659Z,61.80
2023-04-24T23:15:40.560Z,61.75
2023-04-24T23:17:42.272Z,62.18
2023-04-24T23:19:43.884Z,62.30
2023-04-24T23:21:45.486Z,61.94
2023-04-24T23:23:47.132Z,62.57
2023-04-24T23:25:50.255Z,62.72
2023-04-24T23:27:51.825Z,63.10
2023-04-24T23:29:53.462Z,62.93
2023-04-24T23:31:55.009Z,63.46
2023-04-24T23:33:56.602Z,63.33
2023-04-24T23:35:58.426Z,63.02
2023-04-24T23:37:59.979Z,63.46
2023-04-24T23:40:01.867Z,63.59
2023-04-24T23:42:04.935Z,63.60
2023-04-24T23:44:06.551Z,63.44
2023-04-24T23:46:08.086Z,63.31
2023-04-24T23:48:09.603Z,63.50
2023-04-24T23:50:11.350Z,63.64
2023-04-24T23:52:12.947Z,63.85
2023-04-24T23:54:14.643Z,63.10
2023-04-24T23:56:16.387Z,63.35
2023-04-24T23:58:19.337Z,63.72
